sensor_id;sensor_type;location;lat;lon;timestamp;P1;durP1;ratioP1;P2;durP2;ratioP2
74293;SDS011;64044;59.904;10.738;2023-07-16T00:00:30;4.25;;;2.65;;
74293;SDS011;64044;59.904;10.738;2023-07-16T00:02:56;4.07;;;2.55;;
74293;SDS011;64044;59.904;10.738;2023-07-16T00:05:22;4.40;;;2.92;;
74293;SDS011;64044;59.904;10.738;2023-07-16T00:07:48;10.15;;;3.42;;
74293;SDS011;64044;59.904;10.738;2023-07-16T00:10:13;7.65;;;3.38;;
74293;SDS011;64044;59.904;10.738;2023-07-16T00:12:39;4.47;;;2.83;;
74293;SDS011;64044;59.904;10.738;2023-07-16T00:15:05;4.80;;;2.85;;
74293;SDS011;64044;59.904;10.738;2023-07-16T00:17:32;4.13;;;2.92;;
74293;SDS011;64044;59.904;10.738;2023-07-16T00:19:59;6.60;;;2.92;;
74293;SDS011;64044;59.904;10.738;2023-07-16T00:22:24;5.57;;;3.05;;
74293;SDS011;64044;59.904;10.738;2023-07-16T00:24:50;2.75;;;2.30;;
74293;SDS011;64044;59.904;10.738;2023-07-16T00:27:16;5.15;;;2.63;;
74293;SDS011;64044;59.904;10.738;2023-07-16T00:29:41;4.32;;;2.45;;
74293;SDS011;64044;59.904;10.738;2023-07-16T00:32:07;5.95;;;2.40;;
74293;SDS011;64044;59.904;10.738;2023-07-16T00:34:33;2.95;;;2.25;;
74293;SDS011;64044;59.904;10.738;2023-07-16T00:36:58;6.75;;;2.70;;
74293;SDS011;64044;59.904;10.738;2023-07-16T00:39:30;6.13;;;2.55;;
74293;SDS011;64044;59.904;10.738;2023-07-16T00:41:56;2.88;;;2.25;;
74293;SDS011;64044;59.904;10.738;2023-07-16T00:44:21;2.78;;;2.22;;
74293;SDS011;64044;59.904;10.738;2023-07-16T00:46:48;7.15;;;2.75;;
74293;SDS011;64044;59.904;10.738;2023-07-16T00:49:14;3.60;;;2.10;;
74293;SDS011;64044;59.904;10.738;2023-07-16T00:51:40;2.72;;;2.30;;
74293;SDS011;64044;59.904;10.738;2023-07-16T00:54:07;2.60;;;2.28;;
74293;SDS011;64044;59.904;10.738;2023-07-16T00:56:33;3.28;;;2.50;;
74293;SDS011;64044;59.904;10.738;2023-07-16T00:59:00;3.83;;;2.28;;
74293;SDS011;64044;59.904;10.738;2023-07-16T01:01:25;3.05;;;2.25;;
74293;SDS011;64044;59.904;10.738;2023-07-16T01:03:51;3.92;;;2.47;;
74293;SDS011;64044;59.904;10.738;2023-07-16T01:09:17;6.03;;;2.63;;
74293;SDS011;64044;59.904;10.738;2023-07-16T01:11:44;3.40;;;2.45;;
74293;SDS011;64044;59.904;10.738;2023-07-16T01:14:15;1.92;;;1.80;;
74293;SDS011;64044;59.904;10.738;2023-07-16T01:16:42;3.90;;;2.25;;
74293;SDS011;64044;59.904;10.738;2023-07-16T01:19:08;5.88;;;2.38;;
74293;SDS011;64044;59.904;10.738;2023-07-16T01:30:37;10.73;;;2.63;;
74293;SDS011;64044;59.904;10.738;2023-07-16T01:33:06;3.97;;;1.95;;
74293;SDS011;64044;59.904;10.738;2023-07-16T01:35:35;3.92;;;2.13;;
74293;SDS011;64044;59.904;10.738;2023-07-16T01:38:01;5.38;;;2.05;;
74293;SDS011;64044;59.904;10.738;2023-07-16T01:40:26;4.20;;;2.00;;
74293;SDS011;64044;59.904;10.738;2023-07-16T01:42:52;4.13;;;2.17;;
74293;SDS011;64044;59.904;10.738;2023-07-16T01:45:18;3.50;;;2.30;;
74293;SDS011;64044;59.904;10.738;2023-07-16T01:50:40;7.30;;;2.08;;
74293;SDS011;64044;59.904;10.738;2023-07-16T01:53:06;4.13;;;2.30;;
74293;SDS011;64044;59.904;10.738;2023-07-16T01:55:32;4.07;;;2.53;;
74293;SDS011;64044;59.904;10.738;2023-07-16T01:57:57;4.75;;;2.70;;
74293;SDS011;64044;59.904;10.738;2023-07-16T02:00:23;7.32;;;2.85;;
74293;SDS011;64044;59.904;10.738;2023-07-16T02:02:49;4.15;;;2.00;;
74293;SDS011;64044;59.904;10.738;2023-07-16T02:05:14;2.72;;;2.20;;
74293;SDS011;64044;59.904;10.738;2023-07-16T02:07:41;4.63;;;2.47;;
74293;SDS011;64044;59.904;10.738;2023-07-16T02:10:07;3.97;;;2.65;;
74293;SDS011;64044;59.904;10.738;2023-07-16T02:12:33;5.93;;;2.45;;
74293;SDS011;64044;59.904;10.738;2023-07-16T02:14:58;6.05;;;2.85;;
74293;SDS011;64044;59.904;10.738;2023-07-16T02:17:24;4.72;;;2.05;;
74293;SDS011;64044;59.904;10.738;2023-07-16T02:19:50;2.88;;;2.15;;
74293;SDS011;64044;59.904;10.738;2023-07-16T02:22:15;4.93;;;2.90;;
74293;SDS011;64044;59.904;10.738;2023-07-16T02:24:41;4.65;;;2.53;;
74293;SDS011;64044;59.904;10.738;2023-07-16T02:27:07;4.38;;;2.25;;
74293;SDS011;64044;59.904;10.738;2023-07-16T02:29:33;4.13;;;2.33;;
74293;SDS011;64044;59.904;10.738;2023-07-16T02:31:58;2.92;;;2.30;;
74293;SDS011;64044;59.904;10.738;2023-07-16T02:34:24;5.43;;;2.30;;
74293;SDS011;64044;59.904;10.738;2023-07-16T02:36:50;4.43;;;2.22;;
74293;SDS011;64044;59.904;10.738;2023-07-16T02:39:15;4.93;;;2.10;;
74293;SDS011;64044;59.904;10.738;2023-07-16T02:41:41;3.80;;;2.00;;
74293;SDS011;64044;59.904;10.738;2023-07-16T02:44:07;4.20;;;1.80;;
74293;SDS011;64044;59.904;10.738;2023-07-16T02:46:33;3.40;;;1.80;;
74293;SDS011;64044;59.904;10.738;2023-07-16T02:48:59;3.95;;;1.63;;
74293;SDS011;64044;59.904;10.738;2023-07-16T02:51:25;3.17;;;2.05;;
74293;SDS011;64044;59.904;10.738;2023-07-16T02:53:51;3.53;;;2.22;;
74293;SDS011;64044;59.904;10.738;2023-07-16T02:56:17;3.10;;;2.30;;
74293;SDS011;64044;59.904;10.738;2023-07-16T02:58:43;4.63;;;2.33;;
74293;SDS011;64044;59.904;10.738;2023-07-16T03:01:08;3.67;;;2.08;;
74293;SDS011;64044;59.904;10.738;2023-07-16T03:03:34;5.72;;;1.92;;
74293;SDS011;64044;59.904;10.738;2023-07-16T03:06:00;5.07;;;2.25;;
74293;SDS011;64044;59.904;10.738;2023-07-16T03:08:26;4.60;;;2.03;;
74293;SDS011;64044;59.904;10.738;2023-07-16T03:10:55;4.30;;;2.10;;
74293;SDS011;64044;59.904;10.738;2023-07-16T03:13:21;4.18;;;1.90;;
74293;SDS011;64044;59.904;10.738;2023-07-16T03:15:47;3.58;;;1.98;;
74293;SDS011;64044;59.904;10.738;2023-07-16T03:18:13;3.15;;;2.15;;
74293;SDS011;64044;59.904;10.738;2023-07-16T03:20:38;4.32;;;2.42;;
74293;SDS011;64044;59.904;10.738;2023-07-16T03:23:04;5.22;;;1.85;;
74293;SDS011;64044;59.904;10.738;2023-07-16T03:25:30;2.92;;;1.90;;
74293;SDS011;64044;59.904;10.738;2023-07-16T03:27:56;4.85;;;2.30;;
74293;SDS011;64044;59.904;10.738;2023-07-16T03:30:21;7.45;;;2.20;;
74293;SDS011;64044;59.904;10.738;2023-07-16T03:32:47;4.13;;;2.22;;
74293;SDS011;64044;59.904;10.738;2023-07-16T03:35:13;3.45;;;1.98;;
74293;SDS011;64044;59.904;10.738;2023-07-16T03:37:38;3.88;;;2.28;;
74293;SDS011;64044;59.904;10.738;2023-07-16T03:40:17;4.93;;;2.28;;
74293;SDS011;64044;59.904;10.738;2023-07-16T03:42:47;3.25;;;1.95;;
74293;SDS011;64044;59.904;10.738;2023-07-16T03:45:12;5.63;;;2.38;;
74293;SDS011;64044;59.904;10.738;2023-07-16T03:47:39;4.40;;;2.13;;
74293;SDS011;64044;59.904;10.738;2023-07-16T03:50:04;4.18;;;2.22;;
74293;SDS011;64044;59.904;10.738;2023-07-16T03:52:31;5.63;;;2.50;;
74293;SDS011;64044;59.904;10.738;2023-07-16T03:54:56;4.65;;;2.70;;
74293;SDS011;64044;59.904;10.738;2023-07-16T03:57:22;4.32;;;2.53;;
74293;SDS011;64044;59.904;10.738;2023-07-16T03:59:48;5.30;;;2.50;;
74293;SDS011;64044;59.904;10.738;2023-07-16T04:02:13;5.78;;;2.38;;
74293;SDS011;64044;59.904;10.738;2023-07-16T04:04:39;5.00;;;2.65;;
74293;SDS011;64044;59.904;10.738;2023-07-16T04:07:05;7.43;;;2.92;;
74293;SDS011;64044;59.904;10.738;2023-07-16T04:09:31;3.55;;;2.10;;
74293;SDS011;64044;59.904;10.738;2023-07-16T04:11:56;6.72;;;2.70;;
74293;SDS011;64044;59.904;10.738;2023-07-16T04:14:22;6.10;;;2.85;;
74293;SDS011;64044;59.904;10.738;2023-07-16T04:16:48;5.60;;;2.90;;
74293;SDS011;64044;59.904;10.738;2023-07-16T04:19:13;6.10;;;2.67;;
74293;SDS011;64044;59.904;10.738;2023-07-16T04:21:39;5.78;;;2.35;;
74293;SDS011;64044;59.904;10.738;2023-07-16T04:24:05;4.57;;;2.22;;
74293;SDS011;64044;59.904;10.738;2023-07-16T04:26:31;5.63;;;2.90;;
74293;SDS011;64044;59.904;10.738;2023-07-16T04:28:57;4.65;;;2.67;;
74293;SDS011;64044;59.904;10.738;2023-07-16T04:31:23;6.63;;;2.72;;
74293;SDS011;64044;59.904;10.738;2023-07-16T04:33:49;7.40;;;3.13;;
74293;SDS011;64044;59.904;10.738;2023-07-16T04:36:15;3.67;;;2.53;;
74293;SDS011;64044;59.904;10.738;2023-07-16T04:38:41;4.07;;;2.38;;
74293;SDS011;64044;59.904;10.738;2023-07-16T04:41:07;4.47;;;2.65;;
74293;SDS011;64044;59.904;10.738;2023-07-16T04:43:32;4.25;;;2.17;;
74293;SDS011;64044;59.904;10.738;2023-07-16T04:45:58;5.47;;;2.60;;
74293;SDS011;64044;59.904;10.738;2023-07-16T04:48:24;4.63;;;2.70;;
74293;SDS011;64044;59.904;10.738;2023-07-16T04:50:51;4.72;;;2.40;;
74293;SDS011;64044;59.904;10.738;2023-07-16T04:53:17;6.63;;;2.60;;
74293;SDS011;64044;59.904;10.738;2023-07-16T04:55:43;5.00;;;2.55;;
74293;SDS011;64044;59.904;10.738;2023-07-16T04:58:11;5.20;;;2.17;;
74293;SDS011;64044;59.904;10.738;2023-07-16T05:00:37;8.55;;;2.83;;
74293;SDS011;64044;59.904;10.738;2023-07-16T05:03:03;4.28;;;2.42;;
74293;SDS011;64044;59.904;10.738;2023-07-16T05:05:28;4.35;;;2.10;;
74293;SDS011;64044;59.904;10.738;2023-07-16T05:07:54;5.68;;;2.63;;
74293;SDS011;64044;59.904;10.738;2023-07-16T05:10:20;7.55;;;2.83;;
74293;SDS011;64044;59.904;10.738;2023-07-16T05:12:46;4.38;;;2.13;;
74293;SDS011;64044;59.904;10.738;2023-07-16T05:15:12;8.27;;;2.80;;
74293;SDS011;64044;59.904;10.738;2023-07-16T05:17:37;3.70;;;1.98;;
74293;SDS011;64044;59.904;10.738;2023-07-16T05:20:04;4.85;;;1.90;;
74293;SDS011;64044;59.904;10.738;2023-07-16T05:22:31;5.15;;;2.33;;
74293;SDS011;64044;59.904;10.738;2023-07-16T05:24:57;4.47;;;1.98;;
74293;SDS011;64044;59.904;10.738;2023-07-16T05:27:23;4.63;;;2.40;;
74293;SDS011;64044;59.904;10.738;2023-07-16T05:29:48;4.20;;;2.50;;
74293;SDS011;64044;59.904;10.738;2023-07-16T05:32:14;4.40;;;2.70;;
74293;SDS011;64044;59.904;10.738;2023-07-16T05:34:40;3.95;;;2.30;;
74293;SDS011;64044;59.904;10.738;2023-07-16T05:37:05;3.97;;;2.15;;
74293;SDS011;64044;59.904;10.738;2023-07-16T05:39:31;5.88;;;2.35;;
74293;SDS011;64044;59.904;10.738;2023-07-16T05:41:57;3.75;;;2.00;;
74293;SDS011;64044;59.904;10.738;2023-07-16T05:44:23;3.13;;;1.75;;
74293;SDS011;64044;59.904;10.738;2023-07-16T05:46:48;2.88;;;1.85;;
74293;SDS011;64044;59.904;10.738;2023-07-16T05:49:14;5.88;;;2.20;;
74293;SDS011;64044;59.904;10.738;2023-07-16T05:51:40;5.07;;;2.40;;
74293;SDS011;64044;59.904;10.738;2023-07-16T05:54:06;6.22;;;1.95;;
74293;SDS011;64044;59.904;10.738;2023-07-16T05:56:32;3.72;;;2.13;;
74293;SDS011;64044;59.904;10.738;2023-07-16T05:58:57;3.92;;;1.98;;
74293;SDS011;64044;59.904;10.738;2023-07-16T06:01:23;2.67;;;1.98;;
74293;SDS011;64044;59.904;10.738;2023-07-16T06:03:49;2.13;;;1.60;;
74293;SDS011;64044;59.904;10.738;2023-07-16T06:06:15;3.03;;;1.67;;
74293;SDS011;64044;59.904;10.738;2023-07-16T06:08:40;6.32;;;2.05;;
74293;SDS011;64044;59.904;10.738;2023-07-16T06:11:06;2.45;;;1.67;;
74293;SDS011;64044;59.904;10.738;2023-07-16T06:13:32;5.15;;;2.50;;
74293;SDS011;64044;59.904;10.738;2023-07-16T06:15:57;4.95;;;2.00;;
74293;SDS011;64044;59.904;10.738;2023-07-16T06:18:23;3.65;;;1.80;;
74293;SDS011;64044;59.904;10.738;2023-07-16T06:20:49;3.95;;;1.60;;
74293;SDS011;64044;59.904;10.738;2023-07-16T06:23:16;2.15;;;1.83;;
74293;SDS011;64044;59.904;10.738;2023-07-16T06:25:42;3.13;;;1.70;;
74293;SDS011;64044;59.904;10.738;2023-07-16T06:28:13;3.03;;;1.90;;
74293;SDS011;64044;59.904;10.738;2023-07-16T06:30:39;5.85;;;2.00;;
74293;SDS011;64044;59.904;10.738;2023-07-16T06:33:05;4.43;;;1.67;;
74293;SDS011;64044;59.904;10.738;2023-07-16T06:35:31;7.43;;;1.92;;
74293;SDS011;64044;59.904;10.738;2023-07-16T06:37:57;2.92;;;1.70;;
74293;SDS011;64044;59.904;10.738;2023-07-16T06:40:24;5.03;;;2.20;;
74293;SDS011;64044;59.904;10.738;2023-07-16T06:42:50;4.13;;;1.80;;
74293;SDS011;64044;59.904;10.738;2023-07-16T06:45:18;5.60;;;2.47;;
74293;SDS011;64044;59.904;10.738;2023-07-16T06:47:44;4.43;;;2.10;;
74293;SDS011;64044;59.904;10.738;2023-07-16T06:50:10;4.03;;;1.90;;
74293;SDS011;64044;59.904;10.738;2023-07-16T06:52:35;3.67;;;2.03;;
74293;SDS011;64044;59.904;10.738;2023-07-16T06:55:01;4.32;;;2.03;;
74293;SDS011;64044;59.904;10.738;2023-07-16T06:57:27;5.65;;;2.05;;
74293;SDS011;64044;59.904;10.738;2023-07-16T06:59:52;4.63;;;2.28;;
74293;SDS011;64044;59.904;10.738;2023-07-16T07:02:18;6.40;;;2.45;;
74293;SDS011;64044;59.904;10.738;2023-07-16T07:04:45;7.85;;;2.75;;
74293;SDS011;64044;59.904;10.738;2023-07-16T07:07:11;6.07;;;2.03;;
74293;SDS011;64044;59.904;10.738;2023-07-16T07:09:36;5.60;;;2.42;;
74293;SDS011;64044;59.904;10.738;2023-07-16T07:12:02;7.82;;;2.65;;
74293;SDS011;64044;59.904;10.738;2023-07-16T07:14:28;5.57;;;2.20;;
74293;SDS011;64044;59.904;10.738;2023-07-16T07:16:54;4.75;;;1.98;;
74293;SDS011;64044;59.904;10.738;2023-07-16T07:19:20;4.43;;;1.92;;
74293;SDS011;64044;59.904;10.738;2023-07-16T07:21:45;6.72;;;2.30;;
74293;SDS011;64044;59.904;10.738;2023-07-16T07:24:11;2.92;;;1.80;;
74293;SDS011;64044;59.904;10.738;2023-07-16T07:26:37;9.88;;;2.40;;
74293;SDS011;64044;59.904;10.738;2023-07-16T07:29:03;3.20;;;1.83;;
74293;SDS011;64044;59.904;10.738;2023-07-16T07:31:29;4.00;;;1.90;;
74293;SDS011;64044;59.904;10.738;2023-07-16T07:33:54;5.22;;;2.17;;
74293;SDS011;64044;59.904;10.738;2023-07-16T07:36:22;4.80;;;1.95;;
74293;SDS011;64044;59.904;10.738;2023-07-16T07:38:48;7.57;;;3.05;;
74293;SDS011;64044;59.904;10.738;2023-07-16T07:41:14;7.65;;;2.30;;
74293;SDS011;64044;59.904;10.738;2023-07-16T07:43:39;4.38;;;2.30;;
74293;SDS011;64044;59.904;10.738;2023-07-16T07:46:05;5.32;;;2.58;;
74293;SDS011;64044;59.904;10.738;2023-07-16T07:48:31;8.45;;;2.22;;
74293;SDS011;64044;59.904;10.738;2023-07-16T07:50:57;6.55;;;2.35;;
74293;SDS011;64044;59.904;10.738;2023-07-16T07:53:22;9.85;;;2.63;;
74293;SDS011;64044;59.904;10.738;2023-07-16T07:55:48;7.28;;;2.60;;
74293;SDS011;64044;59.904;10.738;2023-07-16T07:58:14;9.02;;;2.67;;
74293;SDS011;64044;59.904;10.738;2023-07-16T08:00:40;5.20;;;2.22;;
74293;SDS011;64044;59.904;10.738;2023-07-16T08:03:05;9.23;;;2.70;;
74293;SDS011;64044;59.904;10.738;2023-07-16T08:05:31;9.48;;;2.80;;
74293;SDS011;64044;59.904;10.738;2023-07-16T08:07:58;6.95;;;2.45;;
74293;SDS011;64044;59.904;10.738;2023-07-16T08:10:24;8.27;;;2.58;;
74293;SDS011;64044;59.904;10.738;2023-07-16T08:12:49;10.95;;;2.53;;
74293;SDS011;64044;59.904;10.738;2023-07-16T08:15:15;9.98;;;2.15;;
74293;SDS011;64044;59.904;10.738;2023-07-16T08:17:43;8.55;;;2.40;;
74293;SDS011;64044;59.904;10.738;2023-07-16T08:20:10;7.78;;;2.53;;
74293;SDS011;64044;59.904;10.738;2023-07-16T08:22:36;7.68;;;3.00;;
74293;SDS011;64044;59.904;10.738;2023-07-16T08:25:02;10.65;;;3.10;;
74293;SDS011;64044;59.904;10.738;2023-07-16T08:27:29;9.32;;;2.92;;
74293;SDS011;64044;59.904;10.738;2023-07-16T08:29:55;13.80;;;2.97;;
74293;SDS011;64044;59.904;10.738;2023-07-16T08:32:20;7.28;;;2.50;;
74293;SDS011;64044;59.904;10.738;2023-07-16T08:34:46;10.05;;;2.95;;
74293;SDS011;64044;59.904;10.738;2023-07-16T08:37:12;17.25;;;3.00;;
74293;SDS011;64044;59.904;10.738;2023-07-16T08:39:39;16.33;;;3.55;;
74293;SDS011;64044;59.904;10.738;2023-07-16T08:42:04;11.73;;;3.28;;
74293;SDS011;64044;59.904;10.738;2023-07-16T08:44:31;11.02;;;3.35;;
74293;SDS011;64044;59.904;10.738;2023-07-16T08:46:57;12.23;;;3.50;;
74293;SDS011;64044;59.904;10.738;2023-07-16T08:49:23;8.48;;;2.75;;
74293;SDS011;64044;59.904;10.738;2023-07-16T08:54:41;12.55;;;3.70;;
74293;SDS011;64044;59.904;10.738;2023-07-16T08:57:07;11.88;;;3.50;;
74293;SDS011;64044;59.904;10.738;2023-07-16T08:59:33;11.05;;;3.28;;
74293;SDS011;64044;59.904;10.738;2023-07-16T09:01:59;13.45;;;3.38;;
74293;SDS011;64044;59.904;10.738;2023-07-16T09:04:26;14.48;;;3.30;;
74293;SDS011;64044;59.904;10.738;2023-07-16T09:06:52;13.90;;;3.83;;
74293;SDS011;64044;59.904;10.738;2023-07-16T09:09:24;11.20;;;3.15;;
74293;SDS011;64044;59.904;10.738;2023-07-16T09:11:50;13.30;;;3.20;;
74293;SDS011;64044;59.904;10.738;2023-07-16T09:14:19;13.57;;;3.67;;
74293;SDS011;64044;59.904;10.738;2023-07-16T09:16:49;17.75;;;3.67;;
74293;SDS011;64044;59.904;10.738;2023-07-16T09:19:16;13.38;;;3.17;;
74293;SDS011;64044;59.904;10.738;2023-07-16T09:21:52;17.00;;;3.63;;
74293;SDS011;64044;59.904;10.738;2023-07-16T09:24:18;11.90;;;3.03;;
74293;SDS011;64044;59.904;10.738;2023-07-16T09:26:49;13.23;;;3.10;;
74293;SDS011;64044;59.904;10.738;2023-07-16T09:29:15;14.23;;;3.63;;
74293;SDS011;64044;59.904;10.738;2023-07-16T09:31:53;11.57;;;3.35;;
74293;SDS011;64044;59.904;10.738;2023-07-16T09:34:26;12.48;;;3.45;;
74293;SDS011;64044;59.904;10.738;2023-07-16T09:36:52;11.40;;;3.60;;
74293;SDS011;64044;59.904;10.738;2023-07-16T09:39:18;20.20;;;4.45;;
74293;SDS011;64044;59.904;10.738;2023-07-16T09:41:47;14.07;;;3.45;;
74293;SDS011;64044;59.904;10.738;2023-07-16T09:44:14;13.48;;;3.75;;
74293;SDS011;64044;59.904;10.738;2023-07-16T09:46:40;16.83;;;3.78;;
74293;SDS011;64044;59.904;10.738;2023-07-16T09:49:06;13.38;;;3.83;;
74293;SDS011;64044;59.904;10.738;2023-07-16T09:51:33;15.02;;;3.55;;
74293;SDS011;64044;59.904;10.738;2023-07-16T09:54:01;18.05;;;4.65;;
74293;SDS011;64044;59.904;10.738;2023-07-16T09:56:31;10.23;;;3.33;;
74293;SDS011;64044;59.904;10.738;2023-07-16T09:59:11;14.05;;;3.25;;
74293;SDS011;64044;59.904;10.738;2023-07-16T10:01:40;13.40;;;3.50;;
74293;SDS011;64044;59.904;10.738;2023-07-16T10:04:10;22.55;;;5.15;;
74293;SDS011;64044;59.904;10.738;2023-07-16T10:06:36;11.73;;;3.60;;
74293;SDS011;64044;59.904;10.738;2023-07-16T10:09:12;13.32;;;3.72;;
74293;SDS011;64044;59.904;10.738;2023-07-16T10:11:38;13.52;;;4.93;;
74293;SDS011;64044;59.904;10.738;2023-07-16T10:14:07;12.45;;;4.10;;
74293;SDS011;64044;59.904;10.738;2023-07-16T10:16:37;10.40;;;3.80;;
74293;SDS011;64044;59.904;10.738;2023-07-16T10:19:04;15.38;;;3.80;;
74293;SDS011;64044;59.904;10.738;2023-07-16T10:21:36;16.60;;;4.22;;
74293;SDS011;64044;59.904;10.738;2023-07-16T10:24:03;14.80;;;3.95;;
74293;SDS011;64044;59.904;10.738;2023-07-16T10:26:30;21.20;;;4.70;;
74293;SDS011;64044;59.904;10.738;2023-07-16T10:28:56;17.80;;;4.68;;
74293;SDS011;64044;59.904;10.738;2023-07-16T10:31:25;20.92;;;5.57;;
74293;SDS011;64044;59.904;10.738;2023-07-16T10:36:36;17.13;;;4.43;;
74293;SDS011;64044;59.904;10.738;2023-07-16T10:39:03;15.68;;;4.60;;
74293;SDS011;64044;59.904;10.738;2023-07-16T10:41:30;13.55;;;4.30;;
74293;SDS011;64044;59.904;10.738;2023-07-16T10:43:57;17.95;;;4.03;;
74293;SDS011;64044;59.904;10.738;2023-07-16T10:46:24;19.35;;;5.00;;
74293;SDS011;64044;59.904;10.738;2023-07-16T10:48:49;17.50;;;4.90;;
74293;SDS011;64044;59.904;10.738;2023-07-16T10:51:15;14.90;;;4.57;;
74293;SDS011;64044;59.904;10.738;2023-07-16T10:53:42;22.20;;;4.30;;
74293;SDS011;64044;59.904;10.738;2023-07-16T10:56:08;14.10;;;4.53;;
74293;SDS011;64044;59.904;10.738;2023-07-16T10:58:36;19.55;;;5.07;;
74293;SDS011;64044;59.904;10.738;2023-07-16T11:01:02;13.95;;;4.35;;
74293;SDS011;64044;59.904;10.738;2023-07-16T11:03:28;17.17;;;5.03;;
74293;SDS011;64044;59.904;10.738;2023-07-16T11:05:54;17.40;;;4.88;;
74293;SDS011;64044;59.904;10.738;2023-07-16T11:08:26;18.88;;;4.97;;
74293;SDS011;64044;59.904;10.738;2023-07-16T11:10:55;17.73;;;4.88;;
74293;SDS011;64044;59.904;10.738;2023-07-16T11:13:24;18.35;;;5.55;;
74293;SDS011;64044;59.904;10.738;2023-07-16T11:15:54;16.63;;;5.40;;
74293;SDS011;64044;59.904;10.738;2023-07-16T11:18:23;22.35;;;6.00;;
74293;SDS011;64044;59.904;10.738;2023-07-16T11:20:53;25.23;;;7.22;;
74293;SDS011;64044;59.904;10.738;2023-07-16T11:23:19;22.55;;;6.18;;
74293;SDS011;64044;59.904;10.738;2023-07-16T11:25:48;21.17;;;5.70;;
74293;SDS011;64044;59.904;10.738;2023-07-16T11:28:14;25.25;;;6.93;;
74293;SDS011;64044;59.904;10.738;2023-07-16T11:30:40;20.85;;;6.68;;
74293;SDS011;64044;59.904;10.738;2023-07-16T11:33:10;22.08;;;7.50;;
74293;SDS011;64044;59.904;10.738;2023-07-16T11:35:37;21.77;;;6.32;;
74293;SDS011;64044;59.904;10.738;2023-07-16T11:38:06;18.98;;;6.07;;
74293;SDS011;64044;59.904;10.738;2023-07-16T11:40:35;24.17;;;7.07;;
74293;SDS011;64044;59.904;10.738;2023-07-16T11:43:08;25.58;;;6.63;;
74293;SDS011;64044;59.904;10.738;2023-07-16T11:45:35;19.02;;;6.75;;
74293;SDS011;64044;59.904;10.738;2023-07-16T11:48:01;20.50;;;6.68;;
74293;SDS011;64044;59.904;10.738;2023-07-16T11:50:28;19.63;;;6.90;;
74293;SDS011;64044;59.904;10.738;2023-07-16T11:52:55;20.05;;;6.38;;
74293;SDS011;64044;59.904;10.738;2023-07-16T11:55:21;23.25;;;6.63;;
74293;SDS011;64044;59.904;10.738;2023-07-16T11:57:48;23.08;;;7.25;;
74293;SDS011;64044;59.904;10.738;2023-07-16T12:00:14;20.73;;;6.72;;
74293;SDS011;64044;59.904;10.738;2023-07-16T12:02:40;23.05;;;6.50;;
74293;SDS011;64044;59.904;10.738;2023-07-16T12:05:05;31.00;;;7.05;;
74293;SDS011;64044;59.904;10.738;2023-07-16T12:07:32;23.63;;;7.22;;
74293;SDS011;64044;59.904;10.738;2023-07-16T12:10:03;42.35;;;9.52;;
74293;SDS011;64044;59.904;10.738;2023-07-16T12:12:30;24.63;;;7.13;;
74293;SDS011;64044;59.904;10.738;2023-07-16T12:14:56;24.23;;;6.50;;
74293;SDS011;64044;59.904;10.738;2023-07-16T12:17:22;22.63;;;6.93;;
74293;SDS011;64044;59.904;10.738;2023-07-16T12:19:47;21.73;;;6.25;;
74293;SDS011;64044;59.904;10.738;2023-07-16T12:22:13;20.13;;;6.93;;
74293;SDS011;64044;59.904;10.738;2023-07-16T12:24:42;22.42;;;7.18;;
74293;SDS011;64044;59.904;10.738;2023-07-16T12:27:08;28.80;;;7.25;;
74293;SDS011;64044;59.904;10.738;2023-07-16T12:29:34;18.90;;;5.72;;
74293;SDS011;64044;59.904;10.738;2023-07-16T12:31:59;21.08;;;6.38;;
74293;SDS011;64044;59.904;10.738;2023-07-16T12:34:25;23.48;;;6.55;;
74293;SDS011;64044;59.904;10.738;2023-07-16T12:36:51;21.73;;;7.32;;
74293;SDS011;64044;59.904;10.738;2023-07-16T12:39:18;25.65;;;7.05;;
74293;SDS011;64044;59.904;10.738;2023-07-16T12:41:44;22.98;;;7.30;;
74293;SDS011;64044;59.904;10.738;2023-07-16T12:44:09;22.30;;;6.60;;
74293;SDS011;64044;59.904;10.738;2023-07-16T12:46:35;23.35;;;6.20;;
74293;SDS011;64044;59.904;10.738;2023-07-16T12:49:01;18.35;;;6.35;;
74293;SDS011;64044;59.904;10.738;2023-07-16T12:51:26;18.70;;;6.53;;
74293;SDS011;64044;59.904;10.738;2023-07-16T12:53:52;21.42;;;6.65;;
74293;SDS011;64044;59.904;10.738;2023-07-16T12:56:18;21.65;;;6.68;;
74293;SDS011;64044;59.904;10.738;2023-07-16T12:58:44;30.45;;;7.32;;
74293;SDS011;64044;59.904;10.738;2023-07-16T13:01:09;22.92;;;5.85;;
74293;SDS011;64044;59.904;10.738;2023-07-16T13:03:35;23.88;;;5.90;;
74293;SDS011;64044;59.904;10.738;2023-07-16T13:06:01;26.20;;;7.63;;
74293;SDS011;64044;59.904;10.738;2023-07-16T13:08:28;18.20;;;6.18;;
74293;SDS011;64044;59.904;10.738;2023-07-16T13:10:54;19.70;;;5.97;;
74293;SDS011;64044;59.904;10.738;2023-07-16T13:13:20;25.13;;;6.75;;
74293;SDS011;64044;59.904;10.738;2023-07-16T13:15:46;17.48;;;5.28;;
74293;SDS011;64044;59.904;10.738;2023-07-16T13:18:12;22.50;;;6.50;;
74293;SDS011;64044;59.904;10.738;2023-07-16T13:20:38;19.30;;;6.18;;
74293;SDS011;64044;59.904;10.738;2023-07-16T13:23:04;20.83;;;5.72;;
74293;SDS011;64044;59.904;10.738;2023-07-16T13:25:29;21.52;;;5.68;;
74293;SDS011;64044;59.904;10.738;2023-07-16T13:27:56;20.27;;;5.93;;
74293;SDS011;64044;59.904;10.738;2023-07-16T13:30:22;23.10;;;6.15;;
74293;SDS011;64044;59.904;10.738;2023-07-16T13:32:47;17.80;;;5.45;;
74293;SDS011;64044;59.904;10.738;2023-07-16T13:35:16;22.70;;;6.35;;
74293;SDS011;64044;59.904;10.738;2023-07-16T13:37:42;24.75;;;6.30;;
74293;SDS011;64044;59.904;10.738;2023-07-16T13:40:08;19.15;;;4.90;;
74293;SDS011;64044;59.904;10.738;2023-07-16T13:42:34;20.88;;;5.07;;
74293;SDS011;64044;59.904;10.738;2023-07-16T13:45:00;19.42;;;4.82;;
74293;SDS011;64044;59.904;10.738;2023-07-16T13:47:26;13.00;;;4.07;;
74293;SDS011;64044;59.904;10.738;2023-07-16T13:49:52;22.63;;;4.90;;
74293;SDS011;64044;59.904;10.738;2023-07-16T13:52:17;17.08;;;4.53;;
74293;SDS011;64044;59.904;10.738;2023-07-16T13:54:43;14.07;;;4.15;;
74293;SDS011;64044;59.904;10.738;2023-07-16T13:57:09;18.13;;;3.92;;
74293;SDS011;64044;59.904;10.738;2023-07-16T13:59:35;13.60;;;3.88;;
74293;SDS011;64044;59.904;10.738;2023-07-16T14:02:01;15.52;;;4.60;;
74293;SDS011;64044;59.904;10.738;2023-07-16T14:04:28;15.25;;;4.55;;
74293;SDS011;64044;59.904;10.738;2023-07-16T14:06:54;18.30;;;4.85;;
74293;SDS011;64044;59.904;10.738;2023-07-16T14:09:21;16.15;;;4.13;;
74293;SDS011;64044;59.904;10.738;2023-07-16T14:11:47;15.07;;;3.95;;
74293;SDS011;64044;59.904;10.738;2023-07-16T14:14:16;16.00;;;4.43;;
74293;SDS011;64044;59.904;10.738;2023-07-16T14:16:42;15.38;;;4.28;;
74293;SDS011;64044;59.904;10.738;2023-07-16T14:19:08;15.13;;;3.95;;
74293;SDS011;64044;59.904;10.738;2023-07-16T14:21:34;17.08;;;4.18;;
74293;SDS011;64044;59.904;10.738;2023-07-16T14:24:00;18.27;;;4.20;;
74293;SDS011;64044;59.904;10.738;2023-07-16T14:26:26;18.33;;;4.13;;
74293;SDS011;64044;59.904;10.738;2023-07-16T14:28:51;16.20;;;4.05;;
74293;SDS011;64044;59.904;10.738;2023-07-16T14:31:18;17.02;;;4.00;;
74293;SDS011;64044;59.904;10.738;2023-07-16T14:33:44;12.07;;;3.50;;
74293;SDS011;64044;59.904;10.738;2023-07-16T14:36:09;17.65;;;3.85;;
74293;SDS011;64044;59.904;10.738;2023-07-16T14:38:35;12.48;;;3.78;;
74293;SDS011;64044;59.904;10.738;2023-07-16T14:41:01;17.52;;;4.25;;
74293;SDS011;64044;59.904;10.738;2023-07-16T14:43:26;13.57;;;4.00;;